Time;durP1;ratioP1;P1;durP2;ratioP2;P2;SDS_P1;SDS_P2;PMS_P1;PMS_P2;Temp;Humidity;BMP_temperature;BMP_pressure;BME280_temperature;BME280_humidity;BME280_pressure;Samples;Min_cycle;Max_cycle;Signal;HPM_P1;HPM_P2
2021/08/28 04:01:05;;;;;;;4.77;4.37;;;10.20;96.30;;;;;;5637266;23;20497;-82
2021/08/28 04:03:31;;;;;;;4.63;4.17;;;10.20;96.30;;;;;;4956501;28;20803;-81
2021/08/28 04:05:57;;;;;;;4.80;4.40;;;10.20;96.30;;;;;;4956514;28;20190;-82
2021/08/28 04:08:22;;;;;;;5.50;4.97;;;10.20;96.30;;;;;;4955677;28;21025;-81
2021/08/28 04:10:48;;;;;;;6.27;5.77;;;10.20;96.30;;;;;;4957450;28;20476;-81
2021/08/28 04:13:13;;;;;;;5.90;5.07;;;10.20;96.30;;;;;;4956331;28;20180;-81
2021/08/28 04:15:39;;;;;;;5.50;5.00;;;10.20;96.30;;;;;;4957036;28;20260;-78
2021/08/28 04:18:04;;;;;;;5.93;5.40;;;10.20;96.30;;;;;;4959854;28;20653;-81
2021/08/28 04:41:13;;;;;;;7.43;5.17;;;10.30;96.30;;;;;;5121464;23;20498;-75
2021/08/28 04:43:38;;;;;;;4.80;4.40;;;10.30;96.30;;;;;;4955611;28;20438;-74
2021/08/28 04:46:04;;;;;;;4.43;4.03;;;10.30;96.30;;;;;;4954068;29;20238;-75
2021/08/28 04:48:31;;;;;;;4.60;3.67;;;10.30;96.30;;;;;;4945618;29;20604;-76
2021/08/28 04:50:57;;;;;;;4.47;3.73;;;10.30;96.30;;;;;;4944980;29;20290;-75
2021/08/28 04:53:23;;;;;;;4.30;3.20;;;10.30;96.30;;;;;;4936206;29;20450;-75
2021/08/28 04:55:48;;;;;;;6.77;3.50;;;10.30;96.30;;;;;;4937105;29;20526;-75
2021/08/28 04:58:14;;;;;;;3.40;3.17;;;10.30;96.30;;;;;;4937000;29;20541;-75
2021/08/28 05:03:15;;;;;;;7.23;2.97;;;10.30;96.30;;;;;;5073016;23;20238;-78
2021/08/28 05:05:40;;;;;;;3.37;3.10;;;10.30;96.30;;;;;;4916359;29;20424;-79
2021/08/28 05:08:06;;;;;;;2.60;2.40;;;10.40;96.30;;;;;;4917039;29;20189;-76
2021/08/28 05:10:31;;;;;;;3.20;3.00;;;10.50;96.30;;;;;;4917341;29;20223;-80
2021/08/28 05:12:56;;;;;;;2.90;2.70;;;10.50;96.30;;;;;;4915275;29;20194;-79
2021/08/28 05:15:22;;;;;;;3.37;3.13;;;10.50;96.30;;;;;;4916434;29;20204;-79
2021/08/28 05:17:47;;;;;;;3.90;3.60;;;10.60;96.30;;;;;;4917521;29;20180;-77
2021/08/28 05:20:13;;;;;;;3.93;3.60;;;10.60;96.30;;;;;;4916385;29;20232;-79
2021/08/28 05:22:38;;;;;;;3.17;2.97;;;10.70;96.30;;;;;;4915645;29;20186;-78
2021/08/28 05:25:04;;;;;;;3.00;2.60;;;10.80;96.30;;;;;;4917699;29;20198;-81
2021/08/28 05:27:30;;;;;;;2.80;2.60;;;10.90;96.30;;;;;;4937178;29;20184;-81
2021/08/28 05:29:56;;;;;;;2.93;2.73;;;10.90;96.30;;;;;;4935566;29;20190;-81
2021/08/28 05:32:22;;;;;;;3.00;2.50;;;11.00;96.30;;;;;;4936465;29;20229;-79
2021/08/28 05:34:47;;;;;;;3.50;3.20;;;11.00;96.30;;;;;;4937598;29;20176;-80
2021/08/28 05:37:13;;;;;;;3.20;2.90;;;11.10;96.30;;;;;;4936349;29;20511;-79
2021/08/28 05:39:38;;;;;;;3.53;3.23;;;11.10;96.30;;;;;;4936130;29;20233;-80
2021/08/28 05:42:04;;;;;;;7.50;4.07;;;11.20;96.30;;;;;;4935337;29;20204;-79
2021/08/28 05:44:29;;;;;;;4.90;4.50;;;11.20;96.30;;;;;;4936330;29;20182;-79
2021/08/28 05:46:55;;;;;;;4.60;3.90;;;11.20;96.30;;;;;;4934232;29;20205;-80
2021/08/28 05:49:20;;;;;;;3.30;3.03;;;11.20;96.30;;;;;;4925297;29;20703;-75
2021/08/28 05:51:46;;;;;;;3.40;3.10;;;11.10;96.30;;;;;;4896837;29;20701;-74
2021/08/28 05:54:11;;;;;;;3.30;3.10;;;11.00;96.30;;;;;;4903556;29;20183;-76
2021/08/28 05:56:37;;;;;;;3.40;3.10;;;11.00;96.30;;;;;;4903265;29;20227;-74
2021/08/28 05:59:03;;;;;;;3.10;2.90;;;11.00;96.30;;;;;;4903007;29;20583;-73
2021/08/28 06:01:28;;;;;;;3.70;3.30;;;11.10;96.30;;;;;;4902151;29;20193;-74
2021/08/28 06:03:54;;;;;;;2.23;2.13;;;11.00;96.30;;;;;;4903275;29;20176;-75
2021/08/28 06:06:19;;;;;;;2.77;2.47;;;11.00;96.30;;;;;;4903254;29;20263;-74
2021/08/28 06:08:45;;;;;;;2.53;2.30;;;11.00;96.30;;;;;;4903247;29;20532;-74
2021/08/28 06:11:10;;;;;;;6.77;2.93;;;11.00;96.30;;;;;;4902508;29;20331;-74
2021/08/28 06:13:36;;;;;;;2.83;2.63;;;11.00;96.30;;;;;;4903296;29;20219;-74
2021/08/28 06:16:01;;;;;;;6.33;3.10;;;11.10;96.30;;;;;;4902650;29;20788;-74
2021/08/28 06:18:27;;;;;;;4.57;3.03;;;11.20;96.30;;;;;;4903465;29;20176;-75
2021/08/28 06:20:52;;;;;;;2.50;2.30;;;11.20;96.30;;;;;;4903705;29;20207;-78
2021/08/28 06:23:18;;;;;;;2.60;2.10;;;11.30;96.30;;;;;;4903121;29;20173;-75
2021/08/28 06:25:43;;;;;;;2.20;1.93;;;11.40;96.30;;;;;;4916044;29;20238;-76
2021/08/28 06:28:09;;;;;;;1.97;1.87;;;11.50;96.30;;;;;;4941908;29;20179;-76
2021/08/28 06:30:34;;;;;;;2.10;1.90;;;11.60;96.30;;;;;;4942199;29;20212;-76
2021/08/28 06:33:00;;;;;;;2.50;1.80;;;11.70;96.30;;;;;;4942255;29;20183;-77
2021/08/28 06:35:25;;;;;;;2.23;2.00;;;11.80;96.30;;;;;;4941197;29;20199;-77
2021/08/28 06:37:51;;;;;;;1.30;1.20;;;11.80;96.30;;;;;;4940599;29;20258;-80
2021/08/28 06:40:16;;;;;;;3.90;1.10;;;12.00;96.30;;;;;;4941573;29;20679;-76
2021/08/28 06:42:42;;;;;;;1.63;1.53;;;12.00;96.30;;;;;;4941171;29;20179;-76
2021/08/28 06:45:08;;;;;;;1.50;1.40;;;12.10;96.30;;;;;;4929219;29;20173;-76
2021/08/28 06:47:33;;;;;;;1.77;1.57;;;12.10;96.30;;;;;;4923410;29;20196;-78
2021/08/28 06:49:59;;;;;;;1.47;1.37;;;12.10;96.30;;;;;;4923235;29;20416;-76
2021/08/28 06:52:25;;;;;;;1.70;1.60;;;12.10;96.30;;;;;;4920867;28;20204;-76
2021/08/28 06:54:50;;;;;;;1.73;1.63;;;12.10;96.30;;;;;;4928281;29;20188;-78
2021/08/28 06:57:16;;;;;;;1.37;1.27;;;12.30;96.30;;;;;;4933663;28;20195;-81
2021/08/28 06:59:42;;;;;;;4.50;1.60;;;12.40;96.30;;;;;;4921851;29;20189;-80
2021/08/28 07:02:08;;;;;;;1.40;1.30;;;12.50;96.30;;;;;;4921301;29;20210;-82
2021/08/28 07:04:34;;;;;;;1.13;1.03;;;12.60;96.30;;;;;;4917227;29;20416;-82
2021/08/28 07:06:59;;;;;;;1.70;1.17;;;12.70;96.30;;;;;;4919766;29;20179;-80
2021/08/28 07:09:25;;;;;;;1.33;1.23;;;13.00;96.30;;;;;;4919401;29;20645;-81
2021/08/28 07:11:51;;;;;;;1.40;1.30;;;13.20;96.30;;;;;;4917723;29;20208;-82
2021/08/28 07:14:17;;;;;;;2.30;1.70;;;13.10;96.30;;;;;;4918213;29;20188;-80
2021/08/28 07:16:42;;;;;;;1.40;1.17;;;13.00;96.30;;;;;;4919462;29;20462;-81
2021/08/28 07:19:08;;;;;;;1.50;1.00;;;13.00;96.30;;;;;;4918856;29;20176;-84
2021/08/28 07:21:33;;;;;;;1.20;1.10;;;12.90;96.30;;;;;;4917990;29;20200;-83
2021/08/28 07:23:59;;;;;;;1.50;1.20;;;12.80;96.30;;;;;;4920529;29;20208;-83
2021/08/28 07:26:24;;;;;;;1.13;0.97;;;12.70;96.30;;;;;;4919401;29;20199;-84
2021/08/28 07:28:50;;;;;;;0.90;0.80;;;12.60;96.30;;;;;;4920074;29;20184;-82
2021/08/28 07:31:15;;;;;;;1.10;0.90;;;12.50;96.30;;;;;;4922994;29;20247;-82
2021/08/28 07:33:41;;;;;;;1.30;0.90;;;12.70;96.30;;;;;;4925434;29;20187;-83
2021/08/28 07:36:07;;;;;;;1.73;0.90;;;13.00;96.30;;;;;;4926644;29;20239;-82
2021/08/28 07:38:32;;;;;;;1.00;0.90;;;13.40;96.30;;;;;;4927108;29;20180;-82
2021/08/28 07:40:58;;;;;;;1.00;0.90;;;13.80;96.30;;;;;;4933421;29;20270;-81
2021/08/28 07:43:23;;;;;;;1.20;1.10;;;14.00;96.30;;;;;;4924570;29;20165;-80
2021/08/28 07:45:49;;;;;;;2.07;1.03;;;14.30;96.30;;;;;;4919314;29;20590;-79
2021/08/28 07:48:14;;;;;;;1.50;1.30;;;14.30;96.30;;;;;;4919613;29;20668;-80
2021/08/28 07:50:40;;;;;;;1.83;1.00;;;14.60;96.30;;;;;;4918416;29;20200;-78
2021/08/28 07:53:05;;;;;;;1.40;1.00;;;14.60;96.30;;;;;;4916919;29;20177;-79
2021/08/28 07:55:31;;;;;;;1.10;1.00;;;14.70;96.30;;;;;;4917811;29;20207;-78
2021/08/28 07:57:56;;;;;;;1.20;1.10;;;14.70;96.30;;;;;;4931483;29;20176;-79
2021/08/28 08:00:22;;;;;;;2.43;1.50;;;14.60;96.30;;;;;;4931187;29;20248;-80
2021/08/28 08:02:47;;;;;;;1.40;1.30;;;14.70;96.30;;;;;;4920421;29;20955;-80
2021/08/28 08:05:13;;;;;;;1.37;1.27;;;15.00;96.30;;;;;;4919947;29;20172;-80
2021/08/28 08:07:39;;;;;;;1.30;1.20;;;15.00;96.30;;;;;;4918968;29;20641;-79
2021/08/28 08:10:06;;;;;;;1.53;1.00;;;15.10;96.30;;;;;;4918096;29;20171;-78
2021/08/28 08:12:31;;;;;;;1.80;1.03;;;14.50;96.30;;;;;;4916899;29;20199;-78
2021/08/28 08:14:57;;;;;;;1.20;1.10;;;14.20;96.30;;;;;;4916324;29;20421;-77
2021/08/28 08:17:24;;;;;;;1.53;1.10;;;14.20;96.30;;;;;;4916021;29;20176;-77
2021/08/28 08:19:50;;;;;;;4.40;1.13;;;14.20;96.30;;;;;;4917867;29;20181;-79
2021/08/28 08:22:16;;;;;;;1.10;1.00;;;14.20;96.30;;;;;;4917157;29;20447;-79
2021/08/28 08:24:42;;;;;;;1.20;0.93;;;14.10;96.30;;;;;;4917680;29;20235;-78
2021/08/28 08:27:08;;;;;;;1.37;1.27;;;13.90;96.30;;;;;;4934944;29;20431;-78
2021/08/28 08:29:33;;;;;;;1.40;1.23;;;13.50;96.30;;;;;;4936363;29;20958;-78
2021/08/28 08:31:59;;;;;;;1.50;1.30;;;13.40;96.30;;;;;;4936134;29;20196;-78
2021/08/28 08:34:24;;;;;;;1.33;1.23;;;13.70;96.30;;;;;;4936716;29;20584;-78
2021/08/28 08:36:50;;;;;;;1.23;1.13;;;13.90;96.30;;;;;;4937551;29;20525;-78
2021/08/28 08:39:16;;;;;;;3.67;1.20;;;13.90;96.30;;;;;;4936972;29;20183;-77
2021/08/28 08:41:45;;;;;;;1.20;1.10;;;13.90;96.30;;;;;;4936282;29;20201;-79
2021/08/28 08:44:11;;;;;;;1.40;1.30;;;14.00;96.30;;;;;;4936973;29;20768;-79
2021/08/28 08:46:37;;;;;;;1.63;1.30;;;14.00;96.30;;;;;;4935689;29;20416;-78
2021/08/28 08:49:04;;;;;;;1.30;1.20;;;14.10;96.30;;;;;;4936083;29;20415;-78
2021/08/28 08:51:33;;;;;;;1.33;1.23;;;14.10;96.30;;;;;;4936187;29;20538;-78
2021/08/28 08:53:59;;;;;;;1.30;1.20;;;15.60;96.30;;;;;;4936875;29;20447;-78
2021/08/28 08:56:25;;;;;;;1.30;1.00;;;16.90;96.30;;;;;;4936975;29;20462;-78
2021/08/28 08:58:52;;;;;;;1.10;1.00;;;16.70;96.30;;;;;;4936467;29;20412;-78
2021/08/28 09:01:18;;;;;;;1.00;0.90;;;16.40;96.30;;;;;;4936777;29;20191;-78
2021/08/28 09:03:43;;;;;;;1.80;1.17;;;16.60;96.30;;;;;;4936047;29;20411;-78
2021/08/28 09:06:09;;;;;;;1.20;1.00;;;16.20;96.30;;;;;;4934135;29;20798;-78
2021/08/28 09:08:35;;;;;;;3.83;0.90;;;16.20;96.30;;;;;;4935514;29;20540;-78
2021/08/28 09:11:00;;;;;;;1.00;0.90;;;16.00;96.30;;;;;;4934855;29;20218;-77
2021/08/28 09:13:26;;;;;;;1.13;1.03;;;15.50;96.30;;;;;;4935325;29;20259;-78
2021/08/28 09:16:04;;;;;;;1.20;0.93;;;15.10;96.30;;;;;;4935139;29;20699;-78
2021/08/28 09:18:52;;;;;;;1.70;1.10;;;14.80;96.30;;;;;;4935406;29;20156;-78
2021/08/28 09:21:23;;;;;;;2.20;1.30;;;14.60;96.30;;;;;;4934732;29;20862;-77
2021/08/28 09:23:58;;;;;;;1.20;1.10;;;14.70;96.30;;;;;;4933972;29;20427;-77
2021/08/28 09:26:29;;;;;;;1.40;1.30;;;15.00;96.30;;;;;;4922092;29;20507;-77
2021/08/28 09:28:56;;;;;;;1.20;1.00;;;15.30;96.30;;;;;;4916052;29;20417;-77
2021/08/28 09:31:46;;;;;;;1.30;1.20;;;15.20;96.30;;;;;;4915573;29;20439;-78
2021/08/28 09:34:18;;;;;;;1.47;1.37;;;15.20;96.30;;;;;;4920155;29;20814;-78
2021/08/28 09:36:45;;;;;;;1.40;1.30;;;15.40;96.30;;;;;;4915230;29;20452;-77
2021/08/28 09:39:11;;;;;;;1.60;1.50;;;15.70;96.30;;;;;;4916691;29;21097;-77
2021/08/28 09:41:36;;;;;;;1.50;1.40;;;16.80;96.30;;;;;;4914267;29;20436;-77
2021/08/28 09:44:07;;;;;;;1.67;1.57;;;16.70;96.30;;;;;;4916504;29;20417;-78
2021/08/28 09:46:33;;;;;;;1.60;1.40;;;16.50;96.30;;;;;;4919138;29;20593;-75
2021/08/28 09:49:00;;;;;;;1.83;1.53;;;16.30;96.30;;;;;;4915754;29;20488;-78
2021/08/28 09:51:32;;;;;;;1.20;1.10;;;15.90;96.30;;;;;;4914295;29;20204;-80
2021/08/28 09:54:01;;;;;;;1.20;1.03;;;15.70;96.30;;;;;;4915350;29;20458;-79
2021/08/28 09:56:27;;;;;;;1.40;1.30;;;15.70;96.30;;;;;;4916517;29;20842;-80
2021/08/28 09:58:53;;;;;;;2.00;1.37;;;15.50;96.30;;;;;;4917087;29;20424;-80
2021/08/28 10:01:21;;;;;;;1.23;1.13;;;15.30;96.30;;;;;;4915340;29;20287;-78
2021/08/28 10:04:00;;;;;;;1.30;1.07;;;15.00;96.30;;;;;;4917114;29;20176;-77
2021/08/28 10:06:26;;;;;;;1.70;1.20;;;14.90;96.30;;;;;;4917212;29;20430;-78
2021/08/28 10:08:52;;;;;;;1.20;1.10;;;15.10;96.30;;;;;;4913584;29;20420;-78
2021/08/28 10:11:19;;;;;;;1.30;1.20;;;15.60;96.30;;;;;;4915738;29;20436;-78
2021/08/28 10:13:47;;;;;;;2.07;1.30;;;16.10;96.30;;;;;;4915860;29;20416;-78
2021/08/28 10:16:14;;;;;;;1.50;1.40;;;16.60;96.30;;;;;;4916046;29;20464;-79
2021/08/28 10:18:43;;;;;;;3.10;1.20;;;17.70;96.30;;;;;;4915699;29;20500;-78
2021/08/28 10:21:11;;;;;;;1.00;0.90;;;18.30;96.30;;;;;;4914380;29;20445;-78
2021/08/28 10:23:37;;;;;;;1.10;0.90;;;17.80;96.30;;;;;;4918640;29;20427;-78
2021/08/28 10:26:06;;;;;;;1.10;1.00;;;16.90;96.30;;;;;;4923937;29;20428;-80
2021/08/28 10:28:32;;;;;;;2.07;1.00;;;16.00;96.30;;;;;;4928107;29;20491;-80
2021/08/28 10:30:58;;;;;;;1.50;1.17;;;14.80;96.30;;;;;;4916238;29;20530;-80
2021/08/28 10:33:23;;;;;;;1.27;1.17;;;14.30;96.30;;;;;;4914570;29;20209;-75
2021/08/28 10:35:49;;;;;;;1.10;1.00;;;13.80;96.30;;;;;;4915412;29;20200;-75
2021/08/28 10:38:15;;;;;;;1.90;1.27;;;13.40;96.30;;;;;;4916636;29;20179;-74
2021/08/28 10:40:42;;;;;;;1.80;1.40;;;13.20;96.30;;;;;;4919286;29;20204;-73
2021/08/28 10:43:09;;;;;;;1.17;0.90;;;13.20;96.30;;;;;;4916685;29;20180;-74
2021/08/28 10:45:37;;;;;;;1.10;0.90;;;13.40;96.30;;;;;;4918835;29;20939;-74
2021/08/28 10:48:09;;;;;;;1.20;1.10;;;13.60;96.30;;;;;;4918832;29;20428;-75
2021/08/28 10:50:39;;;;;;;1.23;1.13;;;13.50;96.30;;;;;;4918980;29;20440;-73
2021/08/28 10:53:06;;;;;;;1.60;1.10;;;13.50;96.30;;;;;;4918467;29;20452;-74
2021/08/28 10:55:46;;;;;;;1.13;1.00;;;13.60;96.30;;;;;;4918210;29;20459;-76
2021/08/28 10:58:16;;;;;;;3.20;2.13;;;13.70;96.30;;;;;;4918823;29;20515;-76
2021/08/28 11:00:43;;;;;;;1.80;1.50;;;13.60;96.30;;;;;;4918472;29;20869;-73
2021/08/28 11:03:25;;;;;;;1.20;1.10;;;13.30;96.30;;;;;;4918131;29;20424;-75
2021/08/28 11:06:15;;;;;;;5.00;1.50;;;13.00;96.30;;;;;;4918628;29;20479;-74
2021/08/28 11:08:53;;;;;;;1.67;1.40;;;12.80;96.30;;;;;;4918599;29;20461;-75
2021/08/28 11:11:19;;;;;;;1.30;1.00;;;12.60;96.30;;;;;;4916204;29;20495;-76
2021/08/28 11:14:01;;;;;;;1.30;1.20;;;12.50;96.30;;;;;;4921828;29;20427;-77
2021/08/28 11:16:44;;;;;;;1.43;1.33;;;12.60;96.30;;;;;;4922713;29;20826;-77
2021/08/28 11:19:19;;;;;;;1.63;1.23;;;12.80;96.30;;;;;;4928373;29;20430;-78
2021/08/28 11:21:47;;;;;;;1.80;1.13;;;12.90;96.30;;;;;;4928711;29;20447;-79
2021/08/28 11:24:19;;;;;;;3.00;1.40;;;13.10;96.30;;;;;;4920993;29;20428;-79
2021/08/28 11:26:49;;;;;;;1.50;1.40;;;13.30;96.30;;;;;;4928416;29;20443;-79
2021/08/28 11:29:24;;;;;;;1.10;1.00;;;13.40;96.30;;;;;;4917227;29;20932;-79
2021/08/28 11:32:11;;;;;;;1.70;1.20;;;13.40;96.30;;;;;;4914818;29;20451;-79
2021/08/28 11:34:47;;;;;;;3.33;1.27;;;13.50;96.30;;;;;;4915068;29;20452;-79
2021/08/28 11:37:36;;;;;;;1.17;1.07;;;13.60;96.30;;;;;;4917397;29;20456;-80
2021/08/28 11:40:20;;;;;;;1.17;1.07;;;13.70;96.30;;;;;;4915127;29;20428;-78
2021/08/28 11:42:46;;;;;;;1.10;0.90;;;13.90;96.30;;;;;;4916851;29;20444;-79
2021/08/28 11:45:12;;;;;;;1.30;0.97;;;14.00;96.30;;;;;;4917570;29;20432;-79
2021/08/28 11:47:39;;;;;;;0.93;0.83;;;14.00;96.30;;;;;;4916667;29;20412;-80
2021/08/28 11:50:08;;;;;;;0.93;0.83;;;14.00;96.30;;;;;;4925440;29;20220;-80
2021/08/28 11:52:34;;;;;;;1.20;1.07;;;14.10;96.30;;;;;;4916624;29;20445;-80
2021/08/28 11:55:02;;;;;;;1.00;0.80;;;14.00;96.30;;;;;;4916954;29;20432;-79
2021/08/28 11:57:27;;;;;;;1.10;0.90;;;13.90;96.30;;;;;;4914129;29;20476;-79
2021/08/28 11:59:53;;;;;;;1.20;1.10;;;13.90;96.30;;;;;;4917311;29;20790;-79
2021/08/28 12:02:20;;;;;;;1.00;0.80;;;13.90;96.30;;;;;;4917115;29;20719;-80
2021/08/28 12:04:45;;;;;;;1.10;0.77;;;14.00;96.30;;;;;;4916413;29;20212;-79
2021/08/28 12:07:11;;;;;;;0.90;0.70;;;14.20;96.30;;;;;;4917405;29;20417;-80
2021/08/28 12:09:37;;;;;;;0.93;0.83;;;14.30;96.30;;;;;;4917641;29;20546;-80
2021/08/28 12:12:03;;;;;;;0.90;0.70;;;14.40;96.30;;;;;;4919659;29;20196;-80
2021/08/28 12:14:31;;;;;;;1.57;0.77;;;14.40;96.30;;;;;;4921237;29;20180;-79
2021/08/28 12:16:57;;;;;;;0.90;0.70;;;14.30;96.30;;;;;;4917330;29;20205;-80
2021/08/28 12:19:24;;;;;;;0.90;0.80;;;14.40;96.30;;;;;;4916999;29;20468;-80
2021/08/28 12:21:58;;;;;;;0.90;0.80;;;14.30;96.30;;;;;;4916087;29;20283;-80
2021/08/28 12:24:29;;;;;;;1.00;0.80;;;14.20;96.30;;;;;;4916130;29;20416;-80
2021/08/28 12:27:17;;;;;;;1.07;0.80;;;14.10;96.30;;;;;;4931059;29;20437;-79
2021/08/28 12:29:46;;;;;;;1.50;1.00;;;14.00;96.30;;;;;;4929422;29;20459;-80
2021/08/28 12:32:13;;;;;;;0.97;0.87;;;13.80;96.30;;;;;;4915500;29;20436;-79
2021/08/28 12:34:45;;;;;;;1.20;0.93;;;13.60;96.30;;;;;;4916770;29;20416;-79
2021/08/28 12:37:15;;;;;;;1.93;0.97;;;13.60;96.30;;;;;;4916781;29;20813;-79
2021/08/28 12:39:49;;;;;;;1.30;1.10;;;13.40;96.30;;;;;;4916189;29;20455;-79
2021/08/28 12:42:16;;;;;;;1.03;0.93;;;13.50;96.30;;;;;;4915954;29;20428;-79
2021/08/28 12:44:46;;;;;;;1.60;0.93;;;13.60;96.30;;;;;;4916446;29;20499;-79
2021/08/28 12:47:13;;;;;;;1.93;1.00;;;13.50;96.30;;;;;;4916693;29;20452;-79
2021/08/28 12:49:40;;;;;;;1.10;1.00;;;13.50;96.30;;;;;;4914806;29;20969;-79
2021/08/28 12:52:10;;;;;;;1.00;0.80;;;13.60;96.30;;;;;;4915580;29;20443;-80
2021/08/28 12:54:38;;;;;;;1.10;0.93;;;13.90;96.30;;;;;;4915003;29;20777;-79
2021/08/28 12:57:11;;;;;;;9.90;1.20;;;14.10;96.30;;;;;;4927955;29;21051;-78
2021/08/28 12:59:42;;;;;;;1.27;1.00;;;14.30;96.30;;;;;;4916067;29;20483;-79
2021/08/28 13:02:18;;;;;;;1.23;1.13;;;15.10;96.30;;;;;;4912425;29;20475;-78
2021/08/28 13:04:44;;;;;;;1.83;1.20;;;16.10;96.30;;;;;;4916274;29;20408;-78
2021/08/28 13:07:15;;;;;;;1.13;1.03;;;16.60;96.30;;;;;;4916856;29;20499;-79
2021/08/28 13:09:53;;;;;;;1.07;0.97;;;16.50;96.30;;;;;;4924160;29;20456;-80
2021/08/28 13:12:36;;;;;;;1.00;0.80;;;16.20;96.30;;;;;;4933194;29;20497;-79
2021/08/28 13:15:02;;;;;;;2.23;1.30;;;15.70;96.30;;;;;;4934260;29;20403;-78
2021/08/28 13:17:28;;;;;;;1.10;0.90;;;14.70;96.30;;;;;;4930678;29;20468;-76
2021/08/28 13:20:05;;;;;;;1.30;1.10;;;14.20;96.30;;;;;;4929735;29;20188;-76
2021/08/28 13:22:31;;;;;;;2.63;1.37;;;13.80;96.30;;;;;;4928747;29;20440;-77
2021/08/28 13:24:57;;;;;;;1.90;1.30;;;13.60;96.30;;;;;;4918697;29;20424;-77
2021/08/28 13:27:22;;;;;;;1.87;1.47;;;13.70;96.30;;;;;;4916657;29;20519;-77
2021/08/28 13:29:48;;;;;;;1.40;1.30;;;13.70;96.30;;;;;;4931160;29;20557;-79
2021/08/28 13:32:16;;;;;;;1.63;1.20;;;13.60;96.30;;;;;;4915075;29;20200;-78
2021/08/28 13:34:46;;;;;;;1.60;1.40;;;13.70;96.30;;;;;;4915907;29;20184;-77
2021/08/28 13:37:13;;;;;;;1.40;1.20;;;13.80;96.30;;;;;;4915370;29;20486;-78
2021/08/28 13:39:40;;;;;;;1.23;1.13;;;13.90;96.30;;;;;;4914015;29;20421;-79
2021/08/28 13:42:16;;;;;;;1.70;1.60;;;14.20;96.30;;;;;;4915259;29;20471;-79
2021/08/28 13:44:42;;;;;;;1.97;1.20;;;14.50;96.30;;;;;;4915361;29;20409;-79
2021/08/28 13:47:07;;;;;;;5.77;1.67;;;14.60;96.30;;;;;;4917073;29;20427;-80
2021/08/28 13:49:33;;;;;;;3.70;1.20;;;14.50;96.30;;;;;;4917529;29;20703;-79
2021/08/28 13:51:58;;;;;;;1.30;1.20;;;14.20;96.30;;;;;;4917590;29;20239;-80
2021/08/28 13:54:24;;;;;;;1.20;1.10;;;13.80;96.30;;;;;;4918324;29;20184;-80
2021/08/28 13:56:49;;;;;;;1.90;1.30;;;13.70;96.30;;;;;;4918988;29;20196;-80
2021/08/28 13:59:15;;;;;;;1.70;1.60;;;13.70;96.30;;;;;;4918100;29;20219;-80
2021/08/28 14:01:41;;;;;;;2.30;1.37;;;13.90;96.30;;;;;;4918402;29;20745;-80
2021/08/28 14:04:06;;;;;;;1.37;1.27;;;14.40;96.30;;;;;;4933593;29;20176;-81
2021/08/28 14:06:32;;;;;;;1.87;1.53;;;14.80;96.30;;;;;;4915927;29;20196;-81
2021/08/28 14:08:58;;;;;;;1.93;1.40;;;15.10;96.30;;;;;;4919534;29;20204;-80
2021/08/28 14:11:23;;;;;;;1.57;1.47;;;15.00;96.30;;;;;;4917442;29;20508;-80
2021/08/28 14:13:49;;;;;;;1.90;1.80;;;14.80;96.30;;;;;;4918557;29;20176;-79
2021/08/28 14:16:14;;;;;;;2.03;1.83;;;14.80;96.30;;;;;;4920699;29;20283;-78
2021/08/28 14:18:40;;;;;;;1.80;1.40;;;14.90;96.30;;;;;;4920429;29;20308;-78
2021/08/28 14:21:05;;;;;;;1.63;1.53;;;14.90;96.30;;;;;;4919797;29;20199;-79
2021/08/28 14:23:31;;;;;;;1.60;1.50;;;14.70;96.30;;;;;;4920143;29;20207;-78
2021/08/28 14:25:56;;;;;;;1.53;1.43;;;14.30;96.30;;;;;;4929824;29;20186;-76
2021/08/28 14:28:22;;;;;;;1.60;1.50;;;13.80;96.30;;;;;;4919790;29;20515;-78
2021/08/28 15:34:33;;;;;;;1.43;0.93;;;15.00;96.30;;;;;;5050908;23;20480;-79
2021/08/28 15:37:00;;;;;;;1.13;1.03;;;14.80;96.30;;;;;;4995710;28;20479;-80
2021/08/28 15:39:27;;;;;;;1.10;0.87;;;14.60;96.30;;;;;;4978747;28;20182;-79
2021/08/28 15:41:54;;;;;;;1.30;0.90;;;14.60;96.30;;;;;;4978136;28;20891;-79
2021/08/28 15:44:20;;;;;;;2.20;1.13;;;14.50;96.30;;;;;;4995601;28;20928;-79
2021/08/28 15:46:46;;;;;;;1.20;1.00;;;14.60;96.30;;;;;;4995951;28;20928;-79
2021/08/28 15:49:11;;;;;;;1.57;1.00;;;15.00;96.30;;;;;;4996841;28;20898;-79
2021/08/28 16:05:20;;;;;;;1.63;1.00;;;14.60;96.30;;;;;;4998567;28;20418;-80
2021/08/28 16:07:46;;;;;;;1.70;1.20;;;14.40;96.30;;;;;;4997667;28;20500;-80
2021/08/28 16:10:14;;;;;;;1.43;1.00;;;14.30;96.30;;;;;;4993243;28;20169;-80
2021/08/28 16:12:41;;;;;;;1.83;1.07;;;14.30;96.30;;;;;;4978451;28;20170;-82
2021/08/28 16:15:28;;;;;;;1.40;1.20;;;14.60;96.30;;;;;;4976591;28;20928;-80
2021/08/28 16:17:56;;;;;;;1.53;1.10;;;14.90;96.30;;;;;;4978479;28;20445;-79
2021/08/28 16:20:22;;;;;;;1.73;1.33;;;14.90;96.30;;;;;;4958758;28;20414;-79
2021/08/28 16:22:48;;;;;;;3.13;1.30;;;14.70;96.30;;;;;;4974447;28;20421;-80
2021/08/28 16:25:13;;;;;;;2.47;1.17;;;14.50;96.30;;;;;;4977630;28;20202;-79
2021/08/28 16:27:39;;;;;;;1.70;1.13;;;14.60;96.30;;;;;;4963233;28;20185;-79
2021/08/28 16:30:05;;;;;;;1.27;1.10;;;14.70;96.30;;;;;;4958576;28;20182;-80
2021/08/28 16:32:31;;;;;;;1.30;1.20;;;14.80;96.30;;;;;;4957110;28;20966;-80
2021/08/28 16:34:57;;;;;;;2.03;1.40;;;15.00;96.30;;;;;;4957133;28;20449;-79
2021/08/28 16:37:23;;;;;;;2.13;1.50;;;15.30;96.30;;;;;;4975204;28;20220;-79
2021/08/28 16:39:49;;;;;;;1.10;1.00;;;15.50;96.30;;;;;;4975440;28;20923;-78
2021/08/28 16:42:15;;;;;;;1.83;1.50;;;15.50;96.30;;;;;;4976697;28;20308;-79
2021/08/28 16:44:40;;;;;;;1.67;1.07;;;15.40;96.30;;;;;;4974675;28;20484;-79
2021/08/28 16:47:06;;;;;;;2.23;1.20;;;15.40;96.30;;;;;;4973775;28;20185;-79
2021/08/28 16:49:32;;;;;;;2.13;1.20;;;15.70;96.30;;;;;;4955996;28;20651;-77
2021/08/28 16:51:58;;;;;;;1.20;1.10;;;15.60;96.30;;;;;;4971349;28;20202;-79
2021/08/28 16:54:24;;;;;;;1.20;1.00;;;15.50;96.30;;;;;;4972879;28;20414;-80
2021/08/28 16:56:49;;;;;;;3.10;1.10;;;15.30;96.30;;;;;;4974948;28;20210;-79
2021/08/28 16:59:15;;;;;;;1.47;1.00;;;14.90;96.30;;;;;;4971155;28;20201;-79
2021/08/28 17:01:40;;;;;;;1.47;1.10;;;14.40;96.30;;;;;;4955917;28;20224;-79
2021/08/28 17:04:06;;;;;;;1.60;0.97;;;14.00;96.30;;;;;;4955631;28;20167;-78
2021/08/28 17:06:31;;;;;;;2.10;1.17;;;13.70;96.30;;;;;;4962286;28;20218;-78
2021/08/28 17:08:57;;;;;;;3.00;1.03;;;13.50;96.30;;;;;;4956232;28;20220;-78
2021/08/28 17:11:23;;;;;;;3.33;1.20;;;13.40;96.30;;;;;;4955928;28;20198;-79
2021/08/28 17:13:49;;;;;;;1.10;1.00;;;13.30;96.30;;;;;;4954910;28;20175;-77
2021/08/28 17:16:14;;;;;;;2.20;0.93;;;13.10;96.30;;;;;;4971786;28;20525;-78
2021/08/28 17:18:40;;;;;;;1.40;1.07;;;13.00;96.30;;;;;;4977214;28;20532;-78
2021/08/28 17:21:07;;;;;;;2.40;1.30;;;12.90;96.30;;;;;;4971053;28;20285;-79
2021/08/28 17:23:32;;;;;;;2.30;1.13;;;12.90;96.30;;;;;;4973091;28;20943;-79
2021/08/28 17:25:59;;;;;;;1.13;1.03;;;12.80;96.30;;;;;;4973269;28;20435;-79
2021/08/28 17:28:26;;;;;;;1.10;0.80;;;12.60;96.30;;;;;;4972707;28;20248;-78
2021/08/28 17:30:54;;;;;;;1.87;1.30;;;12.50;96.30;;;;;;4972551;28;20505;-79
2021/08/28 17:33:20;;;;;;;1.30;1.00;;;12.50;96.30;;;;;;4966019;28;20450;-77
2021/08/28 17:35:45;;;;;;;3.57;2.03;;;12.40;96.30;;;;;;4973997;28;20968;-78
2021/08/28 17:38:11;;;;;;;8.27;5.70;;;12.40;96.30;;;;;;4971260;28;20198;-78
2021/08/28 17:40:36;;;;;;;27.50;24.80;;;12.40;96.30;;;;;;4971588;28;20193;-78
2021/08/28 17:43:02;;;;;;;9.67;8.23;;;12.30;96.30;;;;;;4971397;28;20186;-77
2021/08/28 17:45:27;;;;;;;3.53;2.83;;;12.30;96.30;;;;;;4954457;28;20259;-78
2021/08/28 17:47:54;;;;;;;1.40;1.30;;;12.30;96.30;;;;;;4971410;28;20529;-78
2021/08/28 17:50:20;;;;;;;1.70;1.60;;;12.30;96.30;;;;;;4972584;28;20173;-78
2021/08/28 17:52:45;;;;;;;2.93;1.80;;;12.30;96.30;;;;;;4972058;28;20424;-78
2021/08/28 17:55:11;;;;;;;1.97;1.43;;;12.20;96.30;;;;;;4972048;28;20409;-78
2021/08/28 17:57:36;;;;;;;1.53;1.30;;;12.20;96.30;;;;;;4972447;28;20202;-78
2021/08/28 18:00:04;;;;;;;1.93;1.70;;;12.20;96.30;;;;;;4972279;28;20170;-78
2021/08/28 18:02:29;;;;;;;1.67;1.57;;;12.20;96.30;;;;;;4954896;28;20206;-77
2021/08/28 18:04:55;;;;;;;5.33;1.90;;;12.20;96.30;;;;;;4971554;28;20794;-78
2021/08/28 18:07:21;;;;;;;1.90;1.80;;;12.10;96.30;;;;;;4955614;28;20193;-76
2021/08/28 18:09:47;;;;;;;2.53;2.33;;;12.10;96.30;;;;;;4972741;28;20269;-76
2021/08/28 18:12:12;;;;;;;2.17;1.70;;;12.10;96.30;;;;;;4954630;28;20877;-77
2021/08/28 18:14:38;;;;;;;2.53;2.07;;;12.10;96.30;;;;;;4972635;28;20222;-76
2021/08/28 18:17:04;;;;;;;2.67;2.47;;;12.10;96.30;;;;;;4972503;28;20197;-76
2021/08/28 18:19:29;;;;;;;2.80;2.47;;;12.00;96.30;;;;;;4972565;28;20777;-77
2021/08/28 18:21:55;;;;;;;2.87;2.63;;;12.00;96.30;;;;;;4971702;28;20210;-77
2021/08/28 18:24:20;;;;;;;2.47;2.13;;;12.00;96.30;;;;;;4972697;28;20178;-76
2021/08/28 18:26:46;;;;;;;2.13;1.77;;;12.00;96.30;;;;;;4987146;28;20635;-77
2021/08/28 18:29:11;;;;;;;2.53;1.93;;;11.90;96.30;;;;;;4992481;28;20173;-76